PWSweather.com
Personal Weather Stations
Station Observations
KAKFAIRB47
Old Steese Highway North, Fairbanks, AK 99712

Old Steese Highway NorthFairbanks, AK 99712

Lat: 64.885712, Lon: -147.640925

Elevation: 723

Station Type: Fine Offset (Wh 1080, etc)

Latest ConditionsUpdated 2:05:01 AM AKST Thursday, Nov 23, 2017
Currently Today's Max Today's Min Today's Average
Temperature 3.9°F-15.6°C 5.0°F-15.0°C 3.9°F-15.6°C 4.3°F-15.4°C
Dew Point -3.0°F-19.4°C -2.2°F-19.0°C -3.0°F-19.4°C -2.6°F-19.2°C
Winds Calm Calm Calm Calm - Calm Calm
Wind Gusts -- -- - -
Humidity 72% 72% 71% 72%
Pressure 29.11 in985.8 mb 29.14 in986.8 mb 29.11 in985.8 mb -
Hour Temp Dew Point Humidity Winds Wind Gusts Pressure Precip Precip Rate Daily Precip Total
02:05 AM 3.9°F-15.6°C -3.0°F-19.4°C 72% Calm Calm -- 29.11 in985.8 mb 0.00 in0.0 mm 0.00 in0.0 mm 0.00 in0.0 mm
02:00 AM 3.9°F-15.6°C -3.0°F-19.4°C 72% Calm Calm -- 29.11 in985.8 mb 0.00 in0.0 mm 0.00 in0.0 mm 0.00 in0.0 mm
01:55 AM 4.1°F-15.5°C -2.8°F-19.3°C 72% Calm Calm -- 29.11 in985.8 mb 0.00 in0.0 mm 0.00 in0.0 mm 0.00 in0.0 mm
01:50 AM 4.1°F-15.5°C -2.8°F-19.3°C 72% Calm Calm -- 29.11 in985.8 mb 0.00 in0.0 mm 0.00 in0.0 mm 0.00 in0.0 mm
01:45 AM 4.1°F-15.5°C -2.8°F-19.3°C 72% Calm Calm -- 29.12 in986.1 mb 0.00 in0.0 mm 0.00 in0.0 mm 0.00 in0.0 mm
01:40 AM 4.1°F-15.5°C -2.8°F-19.3°C 72% Calm Calm -- 29.12 in986.1 mb 0.00 in0.0 mm 0.00 in0.0 mm 0.00 in0.0 mm
01:35 AM 4.1°F-15.5°C -2.8°F-19.3°C 72% Calm Calm -- 29.12 in986.1 mb 0.00 in0.0 mm 0.00 in0.0 mm 0.00 in0.0 mm
01:30 AM 4.1°F-15.5°C -2.8°F-19.3°C 72% Calm Calm -- 29.12 in986.1 mb 0.00 in0.0 mm 0.00 in0.0 mm 0.00 in0.0 mm
01:25 AM 4.1°F-15.5°C -2.8°F-19.3°C 72% Calm Calm -- 29.12 in986.1 mb 0.00 in0.0 mm 0.00 in0.0 mm 0.00 in0.0 mm
01:20 AM 4.3°F-15.4°C -2.6°F-19.2°C 72% Calm Calm -- 29.12 in986.1 mb 0.00 in0.0 mm 0.00 in0.0 mm 0.00 in0.0 mm
01:15 AM 4.3°F-15.4°C -2.6°F-19.2°C 72% Calm Calm -- 29.12 in986.1 mb 0.00 in0.0 mm 0.00 in0.0 mm 0.00 in0.0 mm
01:10 AM 4.3°F-15.4°C -2.6°F-19.2°C 72% Calm Calm -- 29.13 in986.5 mb 0.00 in0.0 mm 0.00 in0.0 mm 0.00 in0.0 mm
01:05 AM 4.5°F-15.3°C -2.5°F-19.2°C 72% Calm Calm -- 29.13 in986.5 mb 0.00 in0.0 mm 0.00 in0.0 mm 0.00 in0.0 mm
01:00 AM 4.5°F-15.3°C -2.5°F-19.2°C 72% Calm Calm -- 29.13 in986.5 mb 0.00 in0.0 mm 0.00 in0.0 mm 0.00 in0.0 mm
12:55 AM 4.3°F-15.4°C -2.6°F-19.2°C 72% Calm Calm -- 29.13 in986.5 mb 0.00 in0.0 mm 0.00 in0.0 mm 0.00 in0.0 mm
12:50 AM 4.5°F-15.3°C -2.5°F-19.2°C 72% Calm Calm -- 29.12 in986.1 mb 0.00 in0.0 mm 0.00 in0.0 mm 0.00 in0.0 mm
12:45 AM 4.3°F-15.4°C -2.6°F-19.2°C 72% Calm Calm -- 29.12 in986.1 mb 0.00 in0.0 mm 0.00 in0.0 mm 0.00 in0.0 mm
12:40 AM 4.5°F-15.3°C -2.5°F-19.2°C 72% Calm Calm -- 29.13 in986.5 mb 0.00 in0.0 mm 0.00 in0.0 mm 0.00 in0.0 mm
12:35 AM 4.5°F-15.3°C -2.5°F-19.2°C 72% Calm Calm -- 29.13 in986.5 mb 0.00 in0.0 mm 0.00 in0.0 mm 0.00 in0.0 mm
12:30 AM 4.3°F-15.4°C -2.6°F-19.2°C 72% Calm Calm -- 29.13 in986.5 mb 0.00 in0.0 mm 0.00 in0.0 mm 0.00 in0.0 mm
12:25 AM 4.5°F-15.3°C -2.5°F-19.2°C 72% Calm Calm -- 29.13 in986.5 mb 0.00 in0.0 mm 0.00 in0.0 mm 0.00 in0.0 mm
12:20 AM 4.3°F-15.4°C -2.6°F-19.2°C 72% Calm Calm -- 29.13 in986.5 mb 0.00 in0.0 mm 0.00 in0.0 mm 0.00 in0.0 mm
12:15 AM 4.3°F-15.4°C -2.6°F-19.2°C 72% Calm Calm -- 29.13 in986.5 mb 0.00 in0.0 mm 0.00 in0.0 mm 0.00 in0.0 mm
12:10 AM 4.6°F-15.2°C -2.3°F-19.1°C 72% Calm Calm -- 29.13 in986.5 mb 0.00 in0.0 mm 0.00 in0.0 mm 0.00 in0.0 mm
12:05 AM 4.6°F-15.2°C -2.3°F-19.1°C 72% Calm Calm -- 29.13 in986.5 mb 0.00 in0.0 mm 0.00 in0.0 mm 0.00 in0.0 mm
12:00 AM 5.0°F-15.0°C -2.2°F-19.0°C 71% Calm Calm -- 29.14 in986.8 mb 0.00 in0.0 mm 0.00 in0.0 mm 0.00 in0.0 mm